sensor_id;sensor_type;location;lat;lon;timestamp;temperature;humidity
33988;DHT22;37428;53.580;-1.666;2023-07-09T00:01:41;18.10;99.90
33988;DHT22;37428;53.580;-1.666;2023-07-09T00:04:43;18.20;99.90
33988;DHT22;37428;53.580;-1.666;2023-07-09T00:07:46;18.10;99.90
33988;DHT22;37428;53.580;-1.666;2023-07-09T00:10:48;18.10;99.90
33988;DHT22;37428;53.580;-1.666;2023-07-09T00:13:51;18.10;99.90
33988;DHT22;37428;53.580;-1.666;2023-07-09T00:16:53;18.00;99.90
33988;DHT22;37428;53.580;-1.666;2023-07-09T00:19:56;17.90;99.90
33988;DHT22;37428;53.580;-1.666;2023-07-09T00:22:58;17.90;99.90
33988;DHT22;37428;53.580;-1.666;2023-07-09T00:26:00;17.90;99.90
33988;DHT22;37428;53.580;-1.666;2023-07-09T00:29:05;17.90;99.90
33988;DHT22;37428;53.580;-1.666;2023-07-09T00:32:12;17.90;99.90
33988;DHT22;37428;53.580;-1.666;2023-07-09T00:35:16;17.90;99.90
33988;DHT22;37428;53.580;-1.666;2023-07-09T00:38:19;17.80;99.90
33988;DHT22;37428;53.580;-1.666;2023-07-09T00:41:23;17.80;99.50
33988;DHT22;37428;53.580;-1.666;2023-07-09T00:44:31;17.80;99.90
33988;DHT22;37428;53.580;-1.666;2023-07-09T00:47:41;17.90;99.40
33988;DHT22;37428;53.580;-1.666;2023-07-09T00:50:48;17.90;98.20
33988;DHT22;37428;53.580;-1.666;2023-07-09T00:53:54;17.80;98.40
33988;DHT22;37428;53.580;-1.666;2023-07-09T00:57:02;17.80;98.30
33988;DHT22;37428;53.580;-1.666;2023-07-09T01:00:11;17.70;98.20
33988;DHT22;37428;53.580;-1.666;2023-07-09T01:03:21;17.70;98.40
33988;DHT22;37428;53.580;-1.666;2023-07-09T01:06:33;17.80;98.30
33988;DHT22;37428;53.580;-1.666;2023-07-09T01:09:36;17.80;97.80
33988;DHT22;37428;53.580;-1.666;2023-07-09T01:12:42;17.80;97.40
33988;DHT22;37428;53.580;-1.666;2023-07-09T01:15:45;17.70;96.90
33988;DHT22;37428;53.580;-1.666;2023-07-09T01:18:50;17.70;96.30
33988;DHT22;37428;53.580;-1.666;2023-07-09T01:21:55;17.60;96.60
33988;DHT22;37428;53.580;-1.666;2023-07-09T01:25:02;17.60;96.60
33988;DHT22;37428;53.580;-1.666;2023-07-09T01:28:04;17.60;96.70
33988;DHT22;37428;53.580;-1.666;2023-07-09T01:31:07;17.50;96.00
33988;DHT22;37428;53.580;-1.666;2023-07-09T01:34:09;17.50;95.50
33988;DHT22;37428;53.580;-1.666;2023-07-09T01:37:13;17.50;95.60
33988;DHT22;37428;53.580;-1.666;2023-07-09T01:40:18;17.40;95.70
33988;DHT22;37428;53.580;-1.666;2023-07-09T01:43:21;17.40;95.70
33988;DHT22;37428;53.580;-1.666;2023-07-09T01:46:23;17.40;95.10
33988;DHT22;37428;53.580;-1.666;2023-07-09T01:49:25;17.40;96.00
33988;DHT22;37428;53.580;-1.666;2023-07-09T01:52:32;17.40;95.50
33988;DHT22;37428;53.580;-1.666;2023-07-09T01:55:35;17.40;96.10
33988;DHT22;37428;53.580;-1.666;2023-07-09T01:58:37;17.40;95.60
33988;DHT22;37428;53.580;-1.666;2023-07-09T02:01:41;17.40;95.60
33988;DHT22;37428;53.580;-1.666;2023-07-09T02:04:44;17.40;96.00
33988;DHT22;37428;53.580;-1.666;2023-07-09T02:07:47;17.40;96.10
33988;DHT22;37428;53.580;-1.666;2023-07-09T02:10:50;17.40;95.90
33988;DHT22;37428;53.580;-1.666;2023-07-09T02:13:52;17.40;94.60
33988;DHT22;37428;53.580;-1.666;2023-07-09T02:16:54;17.40;95.10
33988;DHT22;37428;53.580;-1.666;2023-07-09T02:19:56;17.40;94.60
33988;DHT22;37428;53.580;-1.666;2023-07-09T02:23:00;17.40;94.30
33988;DHT22;37428;53.580;-1.666;2023-07-09T02:26:02;17.40;94.50
33988;DHT22;37428;53.580;-1.666;2023-07-09T02:29:04;17.30;94.20
33988;DHT22;37428;53.580;-1.666;2023-07-09T02:32:07;17.30;94.70
33988;DHT22;37428;53.580;-1.666;2023-07-09T02:35:09;17.20;94.80
33988;DHT22;37428;53.580;-1.666;2023-07-09T02:38:13;17.20;94.60
33988;DHT22;37428;53.580;-1.666;2023-07-09T02:41:15;17.20;95.00
33988;DHT22;37428;53.580;-1.666;2023-07-09T02:44:18;17.20;94.60
33988;DHT22;37428;53.580;-1.666;2023-07-09T02:47:20;17.20;94.40
33988;DHT22;37428;53.580;-1.666;2023-07-09T02:50:22;17.20;94.60
33988;DHT22;37428;53.580;-1.666;2023-07-09T02:53:27;17.20;93.80
33988;DHT22;37428;53.580;-1.666;2023-07-09T02:56:30;17.10;93.80
33988;DHT22;37428;53.580;-1.666;2023-07-09T02:59:32;17.10;93.80
33988;DHT22;37428;53.580;-1.666;2023-07-09T03:02:34;17.00;94.00
33988;DHT22;37428;53.580;-1.666;2023-07-09T03:05:36;17.00;94.30
33988;DHT22;37428;53.580;-1.666;2023-07-09T03:08:40;16.90;94.20
33988;DHT22;37428;53.580;-1.666;2023-07-09T03:11:42;16.90;94.30
33988;DHT22;37428;53.580;-1.666;2023-07-09T03:14:47;16.90;94.20
33988;DHT22;37428;53.580;-1.666;2023-07-09T03:17:50;16.90;94.60
33988;DHT22;37428;53.580;-1.666;2023-07-09T03:20:52;16.90;94.80
33988;DHT22;37428;53.580;-1.666;2023-07-09T03:23:56;16.80;94.20
33988;DHT22;37428;53.580;-1.666;2023-07-09T03:26:58;16.90;94.50
33988;DHT22;37428;53.580;-1.666;2023-07-09T03:30:00;16.80;94.30
33988;DHT22;37428;53.580;-1.666;2023-07-09T03:33:02;16.80;94.20
33988;DHT22;37428;53.580;-1.666;2023-07-09T03:36:05;16.80;94.10
33988;DHT22;37428;53.580;-1.666;2023-07-09T03:39:09;16.80;94.40
33988;DHT22;37428;53.580;-1.666;2023-07-09T03:42:11;16.80;94.10
33988;DHT22;37428;53.580;-1.666;2023-07-09T03:45:13;16.80;94.40
33988;DHT22;37428;53.580;-1.666;2023-07-09T03:48:17;16.80;94.50
33988;DHT22;37428;53.580;-1.666;2023-07-09T03:51:19;16.80;94.60
33988;DHT22;37428;53.580;-1.666;2023-07-09T03:54:23;16.80;94.20
33988;DHT22;37428;53.580;-1.666;2023-07-09T03:57:25;16.70;94.20
33988;DHT22;37428;53.580;-1.666;2023-07-09T04:00:27;16.70;93.70
33988;DHT22;37428;53.580;-1.666;2023-07-09T04:03:29;16.60;93.00
33988;DHT22;37428;53.580;-1.666;2023-07-09T04:06:31;16.50;92.60
33988;DHT22;37428;53.580;-1.666;2023-07-09T04:09:35;16.50;92.10
33988;DHT22;37428;53.580;-1.666;2023-07-09T04:12:37;16.40;92.20
33988;DHT22;37428;53.580;-1.666;2023-07-09T04:15:39;16.40;91.90
33988;DHT22;37428;53.580;-1.666;2023-07-09T04:18:41;16.40;91.50
33988;DHT22;37428;53.580;-1.666;2023-07-09T04:21:43;16.30;91.50
33988;DHT22;37428;53.580;-1.666;2023-07-09T04:24:47;16.30;91.20
33988;DHT22;37428;53.580;-1.666;2023-07-09T04:27:50;16.30;91.20
33988;DHT22;37428;53.580;-1.666;2023-07-09T04:30:52;16.30;91.00
33988;DHT22;37428;53.580;-1.666;2023-07-09T04:33:54;16.20;91.10
33988;DHT22;37428;53.580;-1.666;2023-07-09T04:36:56;16.20;91.20
33988;DHT22;37428;53.580;-1.666;2023-07-09T04:40:00;16.20;91.00
33988;DHT22;37428;53.580;-1.666;2023-07-09T04:43:03;16.30;91.20
33988;DHT22;37428;53.580;-1.666;2023-07-09T04:46:05;16.20;91.90
33988;DHT22;37428;53.580;-1.666;2023-07-09T04:49:08;16.20;91.60
33988;DHT22;37428;53.580;-1.666;2023-07-09T04:52:13;16.10;91.70
33988;DHT22;37428;53.580;-1.666;2023-07-09T04:55:21;16.10;91.70
33988;DHT22;37428;53.580;-1.666;2023-07-09T04:58:24;16.10;92.10
33988;DHT22;37428;53.580;-1.666;2023-07-09T05:01:26;16.20;92.30
33988;DHT22;37428;53.580;-1.666;2023-07-09T05:04:28;16.20;91.90
33988;DHT22;37428;53.580;-1.666;2023-07-09T05:07:31;16.10;91.60
33988;DHT22;37428;53.580;-1.666;2023-07-09T05:10:40;16.10;91.80
33988;DHT22;37428;53.580;-1.666;2023-07-09T05:13:43;16.10;92.00
33988;DHT22;37428;53.580;-1.666;2023-07-09T05:16:45;16.10;91.50
33988;DHT22;37428;53.580;-1.666;2023-07-09T05:19:47;16.10;91.70
33988;DHT22;37428;53.580;-1.666;2023-07-09T05:22:49;16.10;91.60
33988;DHT22;37428;53.580;-1.666;2023-07-09T05:25:57;16.10;91.90
33988;DHT22;37428;53.580;-1.666;2023-07-09T05:28:59;16.10;91.90
33988;DHT22;37428;53.580;-1.666;2023-07-09T05:32:01;16.20;92.30
33988;DHT22;37428;53.580;-1.666;2023-07-09T05:35:04;16.10;92.20
33988;DHT22;37428;53.580;-1.666;2023-07-09T05:38:07;16.10;92.10
33988;DHT22;37428;53.580;-1.666;2023-07-09T05:41:10;16.20;91.80
33988;DHT22;37428;53.580;-1.666;2023-07-09T05:44:12;16.20;92.00
33988;DHT22;37428;53.580;-1.666;2023-07-09T05:47:14;16.20;91.80
33988;DHT22;37428;53.580;-1.666;2023-07-09T05:50:16;16.30;91.80
33988;DHT22;37428;53.580;-1.666;2023-07-09T05:53:19;16.30;92.20
33988;DHT22;37428;53.580;-1.666;2023-07-09T05:56:22;16.30;92.00
33988;DHT22;37428;53.580;-1.666;2023-07-09T05:59:24;16.40;91.90
33988;DHT22;37428;53.580;-1.666;2023-07-09T06:02:26;16.40;91.70
33988;DHT22;37428;53.580;-1.666;2023-07-09T06:05:28;16.50;91.90
33988;DHT22;37428;53.580;-1.666;2023-07-09T06:08:31;16.50;91.60
33988;DHT22;37428;53.580;-1.666;2023-07-09T06:11:34;16.60;91.20
33988;DHT22;37428;53.580;-1.666;2023-07-09T06:14:37;16.60;90.90
33988;DHT22;37428;53.580;-1.666;2023-07-09T06:17:39;16.70;90.90
33988;DHT22;37428;53.580;-1.666;2023-07-09T06:20:45;16.70;90.30
33988;DHT22;37428;53.580;-1.666;2023-07-09T06:23:49;16.80;90.30
33988;DHT22;37428;53.580;-1.666;2023-07-09T06:26:52;16.80;90.10
33988;DHT22;37428;53.580;-1.666;2023-07-09T06:29:54;16.80;89.80
33988;DHT22;37428;53.580;-1.666;2023-07-09T06:32:57;16.90;89.90
33988;DHT22;37428;53.580;-1.666;2023-07-09T06:36:00;17.00;89.50
33988;DHT22;37428;53.580;-1.666;2023-07-09T06:39:04;17.00;89.00
33988;DHT22;37428;53.580;-1.666;2023-07-09T06:42:08;17.10;88.90
33988;DHT22;37428;53.580;-1.666;2023-07-09T06:45:10;17.20;88.50
33988;DHT22;37428;53.580;-1.666;2023-07-09T06:48:12;17.30;88.20
33988;DHT22;37428;53.580;-1.666;2023-07-09T06:51:15;17.30;88.00
33988;DHT22;37428;53.580;-1.666;2023-07-09T06:54:17;17.40;87.90
33988;DHT22;37428;53.580;-1.666;2023-07-09T06:57:21;17.60;87.80
33988;DHT22;37428;53.580;-1.666;2023-07-09T07:00:25;17.70;88.30
33988;DHT22;37428;53.580;-1.666;2023-07-09T07:03:27;17.70;87.40
33988;DHT22;37428;53.580;-1.666;2023-07-09T07:06:29;17.70;87.10
33988;DHT22;37428;53.580;-1.666;2023-07-09T07:09:32;17.80;86.90
33988;DHT22;37428;53.580;-1.666;2023-07-09T07:12:43;17.90;86.20
33988;DHT22;37428;53.580;-1.666;2023-07-09T07:15:50;17.90;83.60
33988;DHT22;37428;53.580;-1.666;2023-07-09T07:18:52;18.00;83.70
33988;DHT22;37428;53.580;-1.666;2023-07-09T07:21:54;18.20;81.70
33988;DHT22;37428;53.580;-1.666;2023-07-09T07:24:56;18.50;79.90
33988;DHT22;37428;53.580;-1.666;2023-07-09T07:27:59;18.70;79.00
33988;DHT22;37428;53.580;-1.666;2023-07-09T07:31:03;18.90;78.80
33988;DHT22;37428;53.580;-1.666;2023-07-09T07:34:06;18.90;76.80
33988;DHT22;37428;53.580;-1.666;2023-07-09T07:37:08;19.00;75.60
33988;DHT22;37428;53.580;-1.666;2023-07-09T07:40:11;19.10;75.40
33988;DHT22;37428;53.580;-1.666;2023-07-09T07:43:14;19.10;74.90
33988;DHT22;37428;53.580;-1.666;2023-07-09T07:46:16;19.00;74.70
33988;DHT22;37428;53.580;-1.666;2023-07-09T07:49:18;19.00;76.70
33988;DHT22;37428;53.580;-1.666;2023-07-09T07:52:20;18.90;76.60
33988;DHT22;37428;53.580;-1.666;2023-07-09T07:55:23;18.80;75.30
33988;DHT22;37428;53.580;-1.666;2023-07-09T07:58:26;18.70;75.80
33988;DHT22;37428;53.580;-1.666;2023-07-09T08:01:28;18.60;73.80
33988;DHT22;37428;53.580;-1.666;2023-07-09T08:04:30;18.50;73.80
33988;DHT22;37428;53.580;-1.666;2023-07-09T08:07:32;18.50;74.70
33988;DHT22;37428;53.580;-1.666;2023-07-09T08:10:35;18.50;77.10
33988;DHT22;37428;53.580;-1.666;2023-07-09T08:13:38;18.50;78.50
33988;DHT22;37428;53.580;-1.666;2023-07-09T08:16:41;18.50;78.50
33988;DHT22;37428;53.580;-1.666;2023-07-09T08:19:44;18.40;78.00
33988;DHT22;37428;53.580;-1.666;2023-07-09T08:22:47;18.40;76.70
33988;DHT22;37428;53.580;-1.666;2023-07-09T08:25:53;18.50;77.10
33988;DHT22;37428;53.580;-1.666;2023-07-09T08:28:59;18.50;75.80
33988;DHT22;37428;53.580;-1.666;2023-07-09T08:32:01;18.50;74.70
33988;DHT22;37428;53.580;-1.666;2023-07-09T08:35:03;18.40;75.00
33988;DHT22;37428;53.580;-1.666;2023-07-09T08:38:06;18.40;74.60
33988;DHT22;37428;53.580;-1.666;2023-07-09T08:41:13;18.50;74.90
33988;DHT22;37428;53.580;-1.666;2023-07-09T08:44:32;18.50;75.50
33988;DHT22;37428;53.580;-1.666;2023-07-09T08:47:46;18.60;76.30
33988;DHT22;37428;53.580;-1.666;2023-07-09T08:50:52;18.60;75.60
33988;DHT22;37428;53.580;-1.666;2023-07-09T08:53:58;18.40;74.40
33988;DHT22;37428;53.580;-1.666;2023-07-09T08:57:17;18.40;73.70
33988;DHT22;37428;53.580;-1.666;2023-07-09T09:00:26;18.30;74.40
33988;DHT22;37428;53.580;-1.666;2023-07-09T09:03:34;18.20;75.20
33988;DHT22;37428;53.580;-1.666;2023-07-09T09:06:40;18.30;74.90
33988;DHT22;37428;53.580;-1.666;2023-07-09T09:09:47;18.40;74.40
33988;DHT22;37428;53.580;-1.666;2023-07-09T09:13:02;18.50;75.20
33988;DHT22;37428;53.580;-1.666;2023-07-09T09:16:11;18.50;73.10
33988;DHT22;37428;53.580;-1.666;2023-07-09T09:19:22;18.50;72.90
33988;DHT22;37428;53.580;-1.666;2023-07-09T09:22:29;18.40;73.70
33988;DHT22;37428;53.580;-1.666;2023-07-09T09:25:35;18.40;74.20
33988;DHT22;37428;53.580;-1.666;2023-07-09T09:28:39;18.50;73.30
33988;DHT22;37428;53.580;-1.666;2023-07-09T09:31:45;18.50;71.40
33988;DHT22;37428;53.580;-1.666;2023-07-09T09:34:51;18.50;70.50
33988;DHT22;37428;53.580;-1.666;2023-07-09T09:37:53;18.70;69.70
33988;DHT22;37428;53.580;-1.666;2023-07-09T09:41:01;18.80;69.90
33988;DHT22;37428;53.580;-1.666;2023-07-09T09:44:04;18.80;68.50
33988;DHT22;37428;53.580;-1.666;2023-07-09T09:47:09;18.80;67.50
33988;DHT22;37428;53.580;-1.666;2023-07-09T09:50:14;18.90;68.20
33988;DHT22;37428;53.580;-1.666;2023-07-09T09:53:20;18.90;67.60
33988;DHT22;37428;53.580;-1.666;2023-07-09T09:56:27;19.00;67.10
33988;DHT22;37428;53.580;-1.666;2023-07-09T09:59:31;19.10;66.50
33988;DHT22;37428;53.580;-1.666;2023-07-09T10:02:39;18.90;63.70
33988;DHT22;37428;53.580;-1.666;2023-07-09T10:05:45;19.00;65.50
33988;DHT22;37428;53.580;-1.666;2023-07-09T10:08:55;19.00;64.20
33988;DHT22;37428;53.580;-1.666;2023-07-09T10:12:04;19.10;62.70
33988;DHT22;37428;53.580;-1.666;2023-07-09T10:15:29;19.20;63.80
33988;DHT22;37428;53.580;-1.666;2023-07-09T10:18:43;19.30;62.10
33988;DHT22;37428;53.580;-1.666;2023-07-09T10:21:54;19.50;60.10
33988;DHT22;37428;53.580;-1.666;2023-07-09T10:25:05;19.60;59.50
33988;DHT22;37428;53.580;-1.666;2023-07-09T10:28:25;19.70;58.10
33988;DHT22;37428;53.580;-1.666;2023-07-09T10:31:40;19.70;57.80
33988;DHT22;37428;53.580;-1.666;2023-07-09T10:34:51;19.90;58.40
33988;DHT22;37428;53.580;-1.666;2023-07-09T10:38:06;20.00;59.20
33988;DHT22;37428;53.580;-1.666;2023-07-09T10:41:12;20.00;58.20
33988;DHT22;37428;53.580;-1.666;2023-07-09T10:44:18;20.00;54.60
33988;DHT22;37428;53.580;-1.666;2023-07-09T10:47:28;20.00;53.60
33988;DHT22;37428;53.580;-1.666;2023-07-09T10:50:35;20.20;55.10
33988;DHT22;37428;53.580;-1.666;2023-07-09T10:53:42;20.50;56.50
33988;DHT22;37428;53.580;-1.666;2023-07-09T10:56:47;21.00;55.60
33988;DHT22;37428;53.580;-1.666;2023-07-09T10:59:53;21.60;55.40
33988;DHT22;37428;53.580;-1.666;2023-07-09T11:02:59;22.20;51.70
33988;DHT22;37428;53.580;-1.666;2023-07-09T11:06:03;22.60;50.30
33988;DHT22;37428;53.580;-1.666;2023-07-09T11:09:11;22.80;48.10
33988;DHT22;37428;53.580;-1.666;2023-07-09T11:12:18;23.10;47.50
33988;DHT22;37428;53.580;-1.666;2023-07-09T11:15:27;23.10;45.00
33988;DHT22;37428;53.580;-1.666;2023-07-09T11:18:34;23.50;46.10
33988;DHT22;37428;53.580;-1.666;2023-07-09T11:21:45;23.70;42.30
33988;DHT22;37428;53.580;-1.666;2023-07-09T11:25:07;23.90;42.30
33988;DHT22;37428;53.580;-1.666;2023-07-09T11:28:09;24.00;42.20
33988;DHT22;37428;53.580;-1.666;2023-07-09T11:31:19;23.90;42.80
33988;DHT22;37428;53.580;-1.666;2023-07-09T11:34:27;24.20;41.90
33988;DHT22;37428;53.580;-1.666;2023-07-09T11:37:31;24.50;42.50
33988;DHT22;37428;53.580;-1.666;2023-07-09T11:40:33;24.80;40.80
33988;DHT22;37428;53.580;-1.666;2023-07-09T11:43:46;24.60;42.20
33988;DHT22;37428;53.580;-1.666;2023-07-09T11:47:04;24.40;41.60
33988;DHT22;37428;53.580;-1.666;2023-07-09T11:50:22;24.50;42.60
33988;DHT22;37428;53.580;-1.666;2023-07-09T11:53:34;24.60;41.30
33988;DHT22;37428;53.580;-1.666;2023-07-09T11:56:37;24.60;41.10
33988;DHT22;37428;53.580;-1.666;2023-07-09T11:59:41;24.40;42.50
33988;DHT22;37428;53.580;-1.666;2023-07-09T12:02:43;24.60;43.20
33988;DHT22;37428;53.580;-1.666;2023-07-09T12:05:50;24.00;44.00
33988;DHT22;37428;53.580;-1.666;2023-07-09T12:08:55;23.70;43.80
33988;DHT22;37428;53.580;-1.666;2023-07-09T12:11:57;24.10;42.50
33988;DHT22;37428;53.580;-1.666;2023-07-09T12:14:59;24.40;41.50
33988;DHT22;37428;53.580;-1.666;2023-07-09T12:18:10;24.40;42.40
33988;DHT22;37428;53.580;-1.666;2023-07-09T12:21:14;24.50;40.70
33988;DHT22;37428;53.580;-1.666;2023-07-09T12:24:22;24.50;40.10
33988;DHT22;37428;53.580;-1.666;2023-07-09T12:27:26;24.70;40.70
33988;DHT22;37428;53.580;-1.666;2023-07-09T12:30:33;25.00;40.60
33988;DHT22;37428;53.580;-1.666;2023-07-09T12:33:36;25.60;40.90
33988;DHT22;37428;53.580;-1.666;2023-07-09T12:36:38;25.70;41.20
33988;DHT22;37428;53.580;-1.666;2023-07-09T12:39:44;25.90;39.70
33988;DHT22;37428;53.580;-1.666;2023-07-09T12:42:47;25.60;40.10
33988;DHT22;37428;53.580;-1.666;2023-07-09T12:45:49;25.40;39.00
33988;DHT22;37428;53.580;-1.666;2023-07-09T12:48:51;25.30;39.70
33988;DHT22;37428;53.580;-1.666;2023-07-09T12:51:54;25.20;40.50
33988;DHT22;37428;53.580;-1.666;2023-07-09T12:54:59;25.70;40.20
33988;DHT22;37428;53.580;-1.666;2023-07-09T12:58:02;26.20;39.40
33988;DHT22;37428;53.580;-1.666;2023-07-09T13:01:05;26.20;38.00
33988;DHT22;37428;53.580;-1.666;2023-07-09T13:04:09;25.60;38.70
33988;DHT22;37428;53.580;-1.666;2023-07-09T13:07:27;25.80;38.20
33988;DHT22;37428;53.580;-1.666;2023-07-09T13:10:34;26.10;39.30
33988;DHT22;37428;53.580;-1.666;2023-07-09T13:13:40;26.20;38.70
33988;DHT22;37428;53.580;-1.666;2023-07-09T13:16:42;26.30;37.10
33988;DHT22;37428;53.580;-1.666;2023-07-09T13:19:44;26.30;37.30
33988;DHT22;37428;53.580;-1.666;2023-07-09T13:22:46;25.80;37.60
33988;DHT22;37428;53.580;-1.666;2023-07-09T13:25:49;25.00;38.90
33988;DHT22;37428;53.580;-1.666;2023-07-09T13:28:52;24.70;39.40
33988;DHT22;37428;53.580;-1.666;2023-07-09T13:31:55;24.70;39.60
33988;DHT22;37428;53.580;-1.666;2023-07-09T13:34:57;24.40;40.40
33988;DHT22;37428;53.580;-1.666;2023-07-09T13:38:00;24.30;40.60
33988;DHT22;37428;53.580;-1.666;2023-07-09T13:41:11;24.80;40.90
33988;DHT22;37428;53.580;-1.666;2023-07-09T13:44:19;24.80;40.80
33988;DHT22;37428;53.580;-1.666;2023-07-09T13:47:22;24.70;40.50
33988;DHT22;37428;53.580;-1.666;2023-07-09T13:50:24;24.60;42.30
33988;DHT22;37428;53.580;-1.666;2023-07-09T13:53:29;25.00;40.60
33988;DHT22;37428;53.580;-1.666;2023-07-09T13:56:33;25.50;40.70
33988;DHT22;37428;53.580;-1.666;2023-07-09T13:59:35;25.20;40.10
33988;DHT22;37428;53.580;-1.666;2023-07-09T14:02:37;25.00;40.70
33988;DHT22;37428;53.580;-1.666;2023-07-09T14:05:40;25.10;41.30
33988;DHT22;37428;53.580;-1.666;2023-07-09T14:08:42;25.30;40.00
33988;DHT22;37428;53.580;-1.666;2023-07-09T14:11:48;25.70;39.40
33988;DHT22;37428;53.580;-1.666;2023-07-09T14:14:51;26.00;38.60
33988;DHT22;37428;53.580;-1.666;2023-07-09T14:17:54;25.90;39.10
33988;DHT22;37428;53.580;-1.666;2023-07-09T14:20:56;26.20;38.00
33988;DHT22;37428;53.580;-1.666;2023-07-09T14:23:58;25.80;40.30
33988;DHT22;37428;53.580;-1.666;2023-07-09T14:27:07;25.20;40.40
33988;DHT22;37428;53.580;-1.666;2023-07-09T14:30:14;24.90;41.60
33988;DHT22;37428;53.580;-1.666;2023-07-09T14:33:18;24.50;40.80
33988;DHT22;37428;53.580;-1.666;2023-07-09T14:36:20;24.30;42.20
33988;DHT22;37428;53.580;-1.666;2023-07-09T14:39:23;24.30;42.70
33988;DHT22;37428;53.580;-1.666;2023-07-09T14:42:26;24.70;42.80
33988;DHT22;37428;53.580;-1.666;2023-07-09T14:45:29;25.30;42.40
33988;DHT22;37428;53.580;-1.666;2023-07-09T14:48:32;25.40;42.20
33988;DHT22;37428;53.580;-1.666;2023-07-09T14:51:34;24.90;41.80
33988;DHT22;37428;53.580;-1.666;2023-07-09T14:54:36;24.40;42.40
33988;DHT22;37428;53.580;-1.666;2023-07-09T14:57:40;24.20;42.70
33988;DHT22;37428;53.580;-1.666;2023-07-09T15:00:42;24.10;43.30
33988;DHT22;37428;53.580;-1.666;2023-07-09T15:03:47;23.80;43.20
33988;DHT22;37428;53.580;-1.666;2023-07-09T15:06:49;23.60;44.40
33988;DHT22;37428;53.580;-1.666;2023-07-09T15:09:51;23.40;45.60
33988;DHT22;37428;53.580;-1.666;2023-07-09T15:12:55;23.40;45.80
33988;DHT22;37428;53.580;-1.666;2023-07-09T15:15:57;23.90;44.20
33988;DHT22;37428;53.580;-1.666;2023-07-09T15:18:59;23.90;44.30
33988;DHT22;37428;53.580;-1.666;2023-07-09T15:22:04;24.00;43.20
33988;DHT22;37428;53.580;-1.666;2023-07-09T15:25:14;24.40;42.50
33988;DHT22;37428;53.580;-1.666;2023-07-09T15:28:18;24.50;41.80
33988;DHT22;37428;53.580;-1.666;2023-07-09T15:31:20;24.60;42.00
33988;DHT22;37428;53.580;-1.666;2023-07-09T15:34:22;24.60;41.00
33988;DHT22;37428;53.580;-1.666;2023-07-09T15:37:24;24.90;42.20
33988;DHT22;37428;53.580;-1.666;2023-07-09T15:40:28;25.00;42.80
33988;DHT22;37428;53.580;-1.666;2023-07-09T15:43:32;25.10;41.30
33988;DHT22;37428;53.580;-1.666;2023-07-09T15:46:34;25.40;39.80
33988;DHT22;37428;53.580;-1.666;2023-07-09T15:49:36;25.30;40.60
33988;DHT22;37428;53.580;-1.666;2023-07-09T15:52:38;25.20;40.90
33988;DHT22;37428;53.580;-1.666;2023-07-09T15:55:40;25.20;41.00
33988;DHT22;37428;53.580;-1.666;2023-07-09T15:58:44;24.90;41.60
33988;DHT22;37428;53.580;-1.666;2023-07-09T16:01:47;24.80;41.10
33988;DHT22;37428;53.580;-1.666;2023-07-09T16:04:49;24.70;41.50
33988;DHT22;37428;53.580;-1.666;2023-07-09T16:07:52;24.80;41.00
33988;DHT22;37428;53.580;-1.666;2023-07-09T16:10:55;24.40;41.50
33988;DHT22;37428;53.580;-1.666;2023-07-09T16:13:58;24.10;42.30
33988;DHT22;37428;53.580;-1.666;2023-07-09T16:17:01;23.70;42.80
33988;DHT22;37428;53.580;-1.666;2023-07-09T16:20:03;23.50;43.50
33988;DHT22;37428;53.580;-1.666;2023-07-09T16:23:12;23.20;44.30
33988;DHT22;37428;53.580;-1.666;2023-07-09T16:26:16;23.00;44.70
33988;DHT22;37428;53.580;-1.666;2023-07-09T16:29:23;22.80;44.80
33988;DHT22;37428;53.580;-1.666;2023-07-09T16:32:26;22.60;46.00
33988;DHT22;37428;53.580;-1.666;2023-07-09T16:35:28;22.50;46.40
33988;DHT22;37428;53.580;-1.666;2023-07-09T16:38:32;22.40;46.30
33988;DHT22;37428;53.580;-1.666;2023-07-09T16:41:35;22.30;47.20
33988;DHT22;37428;53.580;-1.666;2023-07-09T16:44:39;22.30;47.50
33988;DHT22;37428;53.580;-1.666;2023-07-09T16:47:42;22.20;47.30
33988;DHT22;37428;53.580;-1.666;2023-07-09T16:50:44;21.90;50.90
33988;DHT22;37428;53.580;-1.666;2023-07-09T16:53:46;21.40;55.10
33988;DHT22;37428;53.580;-1.666;2023-07-09T16:56:48;21.00;58.70
33988;DHT22;37428;53.580;-1.666;2023-07-09T16:59:53;20.50;62.90
33988;DHT22;37428;53.580;-1.666;2023-07-09T17:02:57;20.00;67.00
33988;DHT22;37428;53.580;-1.666;2023-07-09T17:05:59;19.50;69.80
33988;DHT22;37428;53.580;-1.666;2023-07-09T17:09:01;19.00;71.70
33988;DHT22;37428;53.580;-1.666;2023-07-09T17:12:06;18.80;73.40
33988;DHT22;37428;53.580;-1.666;2023-07-09T17:15:20;18.60;75.10
33988;DHT22;37428;53.580;-1.666;2023-07-09T17:18:24;18.50;75.80
33988;DHT22;37428;53.580;-1.666;2023-07-09T17:21:27;18.30;77.50
33988;DHT22;37428;53.580;-1.666;2023-07-09T17:24:29;18.30;79.00
33988;DHT22;37428;53.580;-1.666;2023-07-09T17:27:31;18.30;77.90
33988;DHT22;37428;53.580;-1.666;2023-07-09T17:30:36;18.40;78.80
33988;DHT22;37428;53.580;-1.666;2023-07-09T17:33:39;18.50;78.90
33988;DHT22;37428;53.580;-1.666;2023-07-09T17:36:41;18.60;77.90
33988;DHT22;37428;53.580;-1.666;2023-07-09T17:39:43;18.60;77.90
33988;DHT22;37428;53.580;-1.666;2023-07-09T17:42:45;18.70;78.60
33988;DHT22;37428;53.580;-1.666;2023-07-09T17:45:50;18.80;79.00
33988;DHT22;37428;53.580;-1.666;2023-07-09T17:48:52;18.90;78.60
33988;DHT22;37428;53.580;-1.666;2023-07-09T17:51:54;19.00;79.10
33988;DHT22;37428;53.580;-1.666;2023-07-09T17:54:57;19.00;77.90
33988;DHT22;37428;53.580;-1.666;2023-07-09T17:57:59;19.10;78.60
33988;DHT22;37428;53.580;-1.666;2023-07-09T18:01:04;19.10;77.90
33988;DHT22;37428;53.580;-1.666;2023-07-09T18:04:16;19.20;79.30
33988;DHT22;37428;53.580;-1.666;2023-07-09T18:07:23;19.20;79.70
33988;DHT22;37428;53.580;-1.666;2023-07-09T18:10:27;19.20;79.30
33988;DHT22;37428;53.580;-1.666;2023-07-09T18:13:30;19.20;77.00
33988;DHT22;37428;53.580;-1.666;2023-07-09T18:16:34;19.20;78.10
33988;DHT22;37428;53.580;-1.666;2023-07-09T18:19:36;19.10;77.60
33988;DHT22;37428;53.580;-1.666;2023-07-09T18:22:38;19.20;79.40
33988;DHT22;37428;53.580;-1.666;2023-07-09T18:25:42;19.10;79.70
33988;DHT22;37428;53.580;-1.666;2023-07-09T18:28:45;19.10;80.10
33988;DHT22;37428;53.580;-1.666;2023-07-09T18:31:51;19.20;78.60
33988;DHT22;37428;53.580;-1.666;2023-07-09T18:34:56;19.10;78.70
33988;DHT22;37428;53.580;-1.666;2023-07-09T18:37:59;19.10;79.00
33988;DHT22;37428;53.580;-1.666;2023-07-09T18:41:08;19.00;76.70
33988;DHT22;37428;53.580;-1.666;2023-07-09T18:44:18;18.90;78.10
33988;DHT22;37428;53.580;-1.666;2023-07-09T18:47:23;18.90;78.50
33988;DHT22;37428;53.580;-1.666;2023-07-09T18:50:28;18.90;77.50
33988;DHT22;37428;53.580;-1.666;2023-07-09T18:53:30;18.90;79.40
33988;DHT22;37428;53.580;-1.666;2023-07-09T18:56:32;18.90;78.80
33988;DHT22;37428;53.580;-1.666;2023-07-09T18:59:34;19.00;79.70
33988;DHT22;37428;53.580;-1.666;2023-07-09T19:02:38;19.00;77.60
33988;DHT22;37428;53.580;-1.666;2023-07-09T19:05:43;19.00;77.60